createdAt,value
2019-06-07T00:00:54.781Z,85.90
2019-06-07T00:03:29.705Z,85.60
2019-06-07T00:05:51.467Z,85.20
2019-06-07T00:08:26.666Z,85.70
2019-06-07T00:10:48.072Z,86.70
2019-06-07T00:13:20.201Z,85.90
2019-06-07T00:15:46.484Z,85.30
2019-06-07T00:18:17.524Z,85.50
2019-06-07T00:20:44.822Z,87.00
2019-06-07T00:23:14.853Z,87.70
2019-06-07T00:25:41.403Z,87.50
2019-06-07T00:28:08.754Z,87.00
2019-06-07T00:30:50.779Z,87.30
2019-06-07T00:33:05.313Z,87.30
2019-06-07T00:35:32.623Z,87.50
2019-06-07T00:37:59.967Z,88.80
2019-06-07T00:40:31.876Z,89.80
2019-06-07T00:42:56.497Z,90.40
2019-06-07T00:45:24.684Z,90.40
2019-06-07T00:47:52.440Z,90.40
2019-06-07T00:50:23.518Z,90.20
2019-06-07T00:55:22.222Z,90.20
2019-06-07T00:57:47.863Z,90.20
2019-06-07T01:00:18.283Z,90.60
2019-06-07T01:02:46.564Z,90.70
2019-06-07T01:05:17.160Z,91.50
2019-06-07T01:07:43.444Z,91.40
2019-06-07T01:10:13.676Z,91.10
2019-06-07T01:12:41.174Z,91.10
2019-06-07T01:15:10.566Z,90.90
2019-06-07T01:17:50.163Z,91.00
2019-06-07T01:20:08.946Z,90.90
2019-06-07T01:22:36.290Z,91.10
2019-06-07T01:25:04.362Z,91.20
2019-06-07T01:27:31.668Z,91.00
2019-06-07T01:30:00.067Z,91.00
2019-06-07T01:32:31.508Z,91.20
2019-06-07T01:34:56.674Z,91.40
2019-06-07T01:37:27.777Z,91.50
2019-06-07T01:39:53.218Z,91.60
2019-06-07T01:42:22.137Z,91.70
2019-06-07T01:44:49.732Z,91.60
2019-06-07T01:47:17.858Z,91.50
2019-06-07T01:49:45.896Z,91.50
2019-06-07T01:52:13.206Z,91.60
2019-06-07T01:54:55.983Z,91.40
2019-06-07T01:57:30.496Z,91.40
2019-06-07T01:59:38.945Z,91.50
2019-06-07T02:02:06.288Z,91.80
2019-06-07T02:04:33.855Z,91.70
2019-06-07T02:07:01.168Z,91.50
2019-06-07T02:09:31.528Z,91.80
2019-06-07T02:11:57.685Z,91.90
2019-06-07T02:14:27.364Z,92.20
2019-06-07T02:16:54.211Z,92.30
2019-06-07T02:19:21.987Z,92.20
2019-06-07T02:21:49.547Z,92.10
2019-06-07T02:24:16.843Z,92.20
2019-06-07T02:26:44.167Z,92.10
2019-06-07T02:29:11.508Z,92.20
2019-06-07T02:31:39.981Z,92.20
2019-06-07T02:34:07.558Z,92.30
2019-06-07T02:36:40.976Z,92.00
2019-06-07T02:39:06.082Z,92.10
2019-06-07T02:41:39.321Z,92.30
2019-06-07T02:44:02.567Z,92.30
2019-06-07T02:46:40.204Z,92.50
2019-06-07T02:48:59.133Z,92.70
2019-06-07T02:51:32.192Z,92.60
2019-06-07T02:53:55.662Z,92.70
2019-06-07T02:56:52.243Z,92.80
2019-06-07T02:58:53.519Z,93.00
2019-06-07T03:01:20.920Z,93.30
2019-06-07T03:03:48.322Z,93.30
2019-06-07T03:06:15.809Z,93.30
2019-06-07T03:08:44.668Z,93.30
2019-06-07T03:11:13.975Z,93.20
2019-06-07T03:13:42.631Z,93.20
2019-06-07T03:16:11.874Z,93.30
2019-06-07T03:19:04.955Z,93.20
2019-06-07T03:21:36.382Z,93.30
2019-06-07T03:24:04.018Z,93.20
2019-06-07T03:26:45.033Z,93.30
2019-06-07T03:29:00.767Z,93.50
2019-06-07T03:31:32.672Z,93.30
2019-06-07T03:33:59.094Z,93.30
2019-06-07T03:36:27.595Z,93.50
2019-06-07T03:38:55.050Z,93.60
2019-06-07T03:41:22.827Z,93.70
2019-06-07T03:43:50.126Z,93.80
2019-06-07T03:46:17.436Z,94.00
2019-06-07T03:48:44.745Z,93.70
2019-06-07T03:51:24.702Z,93.50
2019-06-07T03:53:41.346Z,93.50
2019-06-07T03:56:08.833Z,93.70
2019-06-07T03:58:47.975Z,93.50
2019-06-07T04:01:05.553Z,93.60
2019-06-07T04:03:42.375Z,93.50
2019-06-07T04:06:02.193Z,93.50
2019-06-07T04:08:30.785Z,93.70
2019-06-07T04:11:00.551Z,94.30
2019-06-07T04:13:30.469Z,94.10
2019-06-07T04:15:57.270Z,93.70
2019-06-07T04:18:24.609Z,93.50
2019-06-07T04:20:51.993Z,93.40
2019-06-07T04:23:29.885Z,93.50
2019-06-07T04:25:48.495Z,94.00
2019-06-07T04:28:15.806Z,93.80
2019-06-07T04:30:43.684Z,93.80
2019-06-07T04:33:11.437Z,93.80
2019-06-07T04:35:42.544Z,93.70
2019-06-07T04:38:09.533Z,93.70
2019-06-07T04:40:39.958Z,93.80
2019-06-07T04:43:06.645Z,94.30
2019-06-07T04:45:41.923Z,94.50
2019-06-07T04:48:05.136Z,94.60
2019-06-07T04:50:34.933Z,94.40
2019-06-07T04:53:02.592Z,94.70
2019-06-07T04:55:31.793Z,94.60
2019-06-07T04:58:00.971Z,94.60
2019-06-07T05:02:59.114Z,95.20
2019-06-07T05:05:26.500Z,96.00
2019-06-07T05:07:53.796Z,96.80
2019-06-07T05:10:21.188Z,96.50
2019-06-07T05:12:48.545Z,96.00
2019-06-07T05:15:15.955Z,95.40
2019-06-07T05:17:45.077Z,94.80
2019-06-07T05:20:12.497Z,94.60
2019-06-07T05:22:44.387Z,94.60
2019-06-07T05:25:09.294Z,94.80
2019-06-07T05:27:39.318Z,94.80
2019-06-07T05:30:24.176Z,95.00
2019-06-07T05:32:43.941Z,95.00
2019-06-07T05:35:08.150Z,94.90
2019-06-07T05:37:38.228Z,94.90
2019-06-07T05:40:06.589Z,94.90
2019-06-07T05:42:37.096Z,94.30
2019-06-07T05:45:05.418Z,93.90
2019-06-07T05:47:37.487Z,93.90
2019-06-07T05:50:02.287Z,93.80
2019-06-07T05:52:29.872Z,93.60
2019-06-07T05:54:57.256Z,93.80
2019-06-07T05:57:24.584Z,94.00
2019-06-07T05:59:51.944Z,94.70
2019-06-07T06:02:24.641Z,94.10
2019-06-07T06:04:49.542Z,93.50
2019-06-07T06:07:17.215Z,93.60
2019-06-07T06:09:46.098Z,93.00
2019-06-07T06:12:13.544Z,92.70
2019-06-07T06:14:44.073Z,92.50
2019-06-07T06:17:10.589Z,92.50
2019-06-07T06:19:40.669Z,92.50
2019-06-07T06:22:07.114Z,92.30
2019-06-07T06:24:34.440Z,92.30
2019-06-07T06:27:19.014Z,92.50
2019-06-07T06:29:31.078Z,93.10
2019-06-07T06:34:27.804Z,91.50
2019-06-07T06:36:55.150Z,91.90
2019-06-07T06:39:22.479Z,91.50
2019-06-07T06:42:01.083Z,91.40
2019-06-07T06:44:19.048Z,91.50
2019-06-07T06:46:56.250Z,91.50
2019-06-07T06:49:15.630Z,91.60
2019-06-07T06:51:46.987Z,91.50
2019-06-07T06:54:12.198Z,91.60
2019-06-07T06:56:39.827Z,91.10
2019-06-07T06:59:39.228Z,90.80
2019-06-07T07:01:37.088Z,91.10
2019-06-07T07:04:12.640Z,90.90
2019-06-07T07:06:34.074Z,90.60
2019-06-07T07:09:02.090Z,90.30
2019-06-07T07:11:29.481Z,90.40
2019-06-07T07:13:57.310Z,90.00
2019-06-07T07:16:24.900Z,90.10
2019-06-07T07:18:54.591Z,88.90
2019-06-07T07:21:21.437Z,89.60
2019-06-07T07:24:14.560Z,88.60
2019-06-07T07:26:18.115Z,88.10
2019-06-07T07:28:46.642Z,86.80
2019-06-07T07:31:14.724Z,86.90
2019-06-07T07:34:23.902Z,87.70
2019-06-07T07:36:28.508Z,86.50
2019-06-07T07:38:40.575Z,85.70
2019-06-07T07:41:15.156Z,86.00
2019-06-07T07:43:37.231Z,86.00
2019-06-07T07:46:27.938Z,83.90
2019-06-07T07:48:33.819Z,83.50
2019-06-07T07:51:03.143Z,82.70
2019-06-07T07:53:47.863Z,81.80
2019-06-07T07:56:00.961Z,82.20
2019-06-07T07:58:29.175Z,80.50
2019-06-07T08:01:16.087Z,80.60
2019-06-07T08:03:45.717Z,81.00
2019-06-07T08:06:13.411Z,80.30
2019-06-07T08:08:41.225Z,79.50
2019-06-07T08:11:08.763Z,80.90
2019-06-07T08:13:37.408Z,80.00
2019-06-07T08:16:12.315Z,79.60
2019-06-07T08:18:34.169Z,79.60
2019-06-07T08:21:21.369Z,77.10
2019-06-07T08:23:32.375Z,79.70
2019-06-07T08:26:01.178Z,77.00
2019-06-07T08:28:28.785Z,76.00
2019-06-07T08:31:04.419Z,76.40
2019-06-07T08:33:27.048Z,75.00
2019-06-07T08:36:11.182Z,74.80
2019-06-07T08:38:29.667Z,74.70
2019-06-07T08:40:59.066Z,74.90
2019-06-07T08:43:23.973Z,75.20
2019-06-07T08:45:58.451Z,74.60
2019-06-07T08:48:27.926Z,75.20
2019-06-07T08:50:54.290Z,74.50
2019-06-07T08:53:19.047Z,73.50
2019-06-07T08:55:47.550Z,72.90
2019-06-07T08:58:15.041Z,73.10
2019-06-07T09:00:46.669Z,74.10
2019-06-07T09:03:12.223Z,73.80
2019-06-07T09:05:39.681Z,73.80
2019-06-07T09:08:28.199Z,72.80
2019-06-07T09:10:36.330Z,72.90
2019-06-07T09:13:10.106Z,73.70
2019-06-07T09:15:33.315Z,71.50
2019-06-07T09:20:44.435Z,72.90
2019-06-07T09:23:17.286Z,73.10
2019-06-07T09:25:56.527Z,73.10
2019-06-07T09:28:19.180Z,72.60
2019-06-07T09:30:42.478Z,72.40
2019-06-07T09:33:10.660Z,70.90
2019-06-07T09:35:38.358Z,71.00
2019-06-07T09:38:18.029Z,71.40
2019-06-07T09:40:35.048Z,71.40
2019-06-07T09:43:55.331Z,69.30
2019-06-07T09:45:32.604Z,69.20
2019-06-07T09:48:04.385Z,67.50
2019-06-07T09:50:29.190Z,67.30
2019-06-07T09:53:02.807Z,67.10
2019-06-07T09:55:26.177Z,67.70
2019-06-07T09:57:53.494Z,66.90
2019-06-07T10:00:39.928Z,66.70
2019-06-07T10:02:50.179Z,66.80
2019-06-07T10:05:17.595Z,66.00
2019-06-07T10:07:59.615Z,67.70
2019-06-07T10:12:43.958Z,64.90
2019-06-07T10:15:11.428Z,66.00
2019-06-07T10:17:38.778Z,66.40
2019-06-07T10:20:07.473Z,66.10
2019-06-07T10:22:34.994Z,64.40
2019-06-07T10:25:02.493Z,64.90
2019-06-07T10:27:31.424Z,63.20
2019-06-07T10:30:00.227Z,61.20
2019-06-07T10:32:27.766Z,62.80
2019-06-07T10:34:55.089Z,62.40
2019-06-07T10:37:22.418Z,62.90
2019-06-07T10:39:49.877Z,63.40
2019-06-07T10:42:17.336Z,62.30
2019-06-07T10:44:44.744Z,61.20
2019-06-07T10:47:12.362Z,61.70
2019-06-07T10:49:39.812Z,62.80
2019-06-07T10:52:08.511Z,61.40
2019-06-07T10:54:36.379Z,61.90
2019-06-07T10:57:04.857Z,61.30
2019-06-07T10:59:32.338Z,60.00
2019-06-07T11:01:59.734Z,60.80
2019-06-07T11:04:27.088Z,61.10
2019-06-07T11:06:54.430Z,61.30
2019-06-07T11:09:21.746Z,61.20
2019-06-07T11:11:49.072Z,60.70
2019-06-07T11:14:16.504Z,61.90
2019-06-07T11:16:43.888Z,59.50
2019-06-07T11:19:14.431Z,59.50
2019-06-07T11:21:40.581Z,59.90
2019-06-07T11:24:08.099Z,59.80
2019-06-07T11:26:35.502Z,59.80
2019-06-07T11:29:02.952Z,58.20
2019-06-07T11:31:30.364Z,58.80
2019-06-07T11:33:57.717Z,60.00
2019-06-07T11:36:25.029Z,60.30
2019-06-07T11:38:52.417Z,59.60
2019-06-07T11:41:19.724Z,59.60
2019-06-07T11:43:47.050Z,58.60
2019-06-07T11:46:15.120Z,59.10
2019-06-07T11:48:42.620Z,58.70
2019-06-07T11:51:10.806Z,59.30
2019-06-07T11:53:38.402Z,59.00
2019-06-07T11:56:05.823Z,59.40
2019-06-07T11:58:33.140Z,59.30
2019-06-07T12:01:00.458Z,58.60
2019-06-07T12:03:27.786Z,57.40
2019-06-07T12:05:55.195Z,57.30
2019-06-07T12:08:22.544Z,60.10
2019-06-07T12:10:49.881Z,59.20
2019-06-07T12:13:17.733Z,59.30
2019-06-07T12:15:48.954Z,60.00
2019-06-07T12:18:15.673Z,60.10
2019-06-07T12:20:43.017Z,57.60
2019-06-07T12:23:11.920Z,60.00
2019-06-07T12:25:39.547Z,58.60
2019-06-07T12:28:06.982Z,58.40
2019-06-07T12:30:34.295Z,59.20
2019-06-07T12:33:01.604Z,60.20
2019-06-07T12:35:29.034Z,61.00
2019-06-07T12:37:56.410Z,60.00
2019-06-07T12:40:30.140Z,59.80
2019-06-07T12:42:52.994Z,59.90
2019-06-07T12:45:41.258Z,61.20
2019-06-07T12:47:49.654Z,60.40
2019-06-07T12:50:17.469Z,61.00
2019-06-07T12:52:44.906Z,61.00
2019-06-07T12:55:13.927Z,61.40
2019-06-07T12:57:41.534Z,60.10
2019-06-07T13:00:10.103Z,60.50
2019-06-07T13:02:37.514Z,61.50
2019-06-07T13:05:05.943Z,60.50
2019-06-07T13:07:33.263Z,60.80
2019-06-07T13:10:00.670Z,59.50
2019-06-07T13:12:28.246Z,59.50
2019-06-07T13:14:57.794Z,60.40
2019-06-07T13:17:25.177Z,58.00
2019-06-07T13:19:52.579Z,58.60
2019-06-07T13:22:20.388Z,57.30
2019-06-07T13:24:47.793Z,58.40
2019-06-07T13:27:16.228Z,59.90
2019-06-07T13:29:43.636Z,59.90
2019-06-07T13:32:10.953Z,59.20
2019-06-07T13:34:38.433Z,60.20
2019-06-07T13:37:25.589Z,59.90
2019-06-07T13:39:53.056Z,58.90
2019-06-07T13:42:20.526Z,59.30
2019-06-07T13:44:47.923Z,59.70
2019-06-07T13:47:15.285Z,59.10
2019-06-07T13:49:42.604Z,58.80
2019-06-07T13:52:09.971Z,60.20
2019-06-07T13:54:37.305Z,60.30
2019-06-07T13:59:43.728Z,59.90
2019-06-07T14:02:11.141Z,60.00
2019-06-07T14:04:38.417Z,60.80
2019-06-07T14:07:05.738Z,59.70
2019-06-07T14:09:33.162Z,60.20
2019-06-07T14:12:00.553Z,59.70
2019-06-07T14:14:29.181Z,60.70
2019-06-07T14:16:57.171Z,60.40
2019-06-07T14:19:24.592Z,60.70
2019-06-07T14:21:52.021Z,61.20
2019-06-07T14:24:19.297Z,60.30
2019-06-07T14:27:05.125Z,61.10
2019-06-07T14:29:32.528Z,61.30
2019-06-07T14:31:59.941Z,60.10
2019-06-07T14:34:28.605Z,60.00
2019-06-07T14:36:56.179Z,59.00
2019-06-07T14:39:24.861Z,59.30
2019-06-07T14:42:07.947Z,60.00
2019-06-07T14:44:21.471Z,60.20
2019-06-07T14:46:48.817Z,62.10
2019-06-07T14:49:16.133Z,61.50
2019-06-07T14:51:43.500Z,60.50
2019-06-07T14:54:10.904Z,59.10
2019-06-07T14:56:39.436Z,59.80
2019-06-07T14:59:06.762Z,59.30
2019-06-07T15:01:35.561Z,61.20
2019-06-07T15:04:03.420Z,62.20
2019-06-07T15:06:30.741Z,62.00
2019-06-07T15:08:58.065Z,61.30
2019-06-07T15:11:26.749Z,61.60
2019-06-07T15:13:54.248Z,60.90
2019-06-07T15:16:21.658Z,59.90
2019-06-07T15:18:48.943Z,61.40
2019-06-07T15:21:16.313Z,61.30
2019-06-07T15:23:43.614Z,61.30
2019-06-07T15:26:11.049Z,61.50
2019-06-07T15:28:38.540Z,61.90
2019-06-07T15:31:05.870Z,62.00
2019-06-07T15:33:34.325Z,62.00
2019-06-07T15:36:01.897Z,62.40
2019-06-07T15:38:29.562Z,61.90
2019-06-07T15:40:58.528Z,62.80
2019-06-07T15:43:25.854Z,63.10
2019-06-07T15:45:53.187Z,63.40
2019-06-07T15:48:20.488Z,63.00
2019-06-07T15:50:47.817Z,62.90
2019-06-07T15:53:15.118Z,62.20
2019-06-07T15:55:45.601Z,62.70
2019-06-07T15:58:11.706Z,62.70
2019-06-07T16:00:40.582Z,63.60
2019-06-07T16:03:08.426Z,62.60
2019-06-07T16:05:36.421Z,64.10
2019-06-07T16:08:04.068Z,66.00
2019-06-07T16:10:32.553Z,66.20
2019-06-07T16:13:00.976Z,65.70
2019-06-07T16:15:28.579Z,64.80
2019-06-07T16:17:55.915Z,64.50
2019-06-07T16:20:23.352Z,65.00
2019-06-07T16:22:52.555Z,64.90
2019-06-07T16:25:20.095Z,66.60
2019-06-07T16:27:48.718Z,67.40
2019-06-07T16:30:16.489Z,67.30
2019-06-07T16:32:45.781Z,66.60
2019-06-07T16:35:13.025Z,66.10
2019-06-07T16:37:40.904Z,65.90
2019-06-07T16:40:09.695Z,65.90
2019-06-07T16:42:38.358Z,65.70
2019-06-07T16:45:06.940Z,65.20
2019-06-07T16:47:37.153Z,65.90
2019-06-07T16:50:04.390Z,66.60
2019-06-07T16:52:31.753Z,67.20
2019-06-07T16:54:59.065Z,66.70
2019-06-07T16:57:26.366Z,66.80
2019-06-07T16:59:53.671Z,66.90
2019-06-07T17:02:20.998Z,67.20
2019-06-07T17:04:48.350Z,67.40
2019-06-07T17:07:15.777Z,67.10
2019-06-07T17:09:45.348Z,67.30
2019-06-07T17:12:12.316Z,68.00
2019-06-07T17:14:40.383Z,68.60
2019-06-07T17:17:07.848Z,68.70
2019-06-07T17:19:35.141Z,69.60
2019-06-07T17:22:02.485Z,69.40
2019-06-07T17:24:29.810Z,69.00
2019-06-07T17:26:57.256Z,69.10
2019-06-07T17:29:35.818Z,69.60
2019-06-07T17:32:16.877Z,70.00
2019-06-07T17:34:44.559Z,70.60
2019-06-07T17:37:11.881Z,70.70
2019-06-07T17:39:40.536Z,71.30
2019-06-07T17:42:09.047Z,71.60
2019-06-07T17:44:36.444Z,71.70
2019-06-07T17:47:03.766Z,71.40
2019-06-07T17:49:31.075Z,71.70
2019-06-07T17:51:58.406Z,71.70
2019-06-07T17:54:25.862Z,72.10
2019-06-07T17:56:53.421Z,72.20
2019-06-07T17:59:20.873Z,72.40
2019-06-07T18:02:10.235Z,72.40
2019-06-07T18:04:17.494Z,72.40
2019-06-07T18:06:45.262Z,72.50
2019-06-07T18:09:14.135Z,72.70
2019-06-07T18:11:41.547Z,72.70
2019-06-07T18:14:11.085Z,72.60
2019-06-07T18:16:38.339Z,73.70
2019-06-07T18:19:06.767Z,73.70
2019-06-07T18:21:34.212Z,73.50
2019-06-07T18:24:01.571Z,73.60
2019-06-07T18:26:28.924Z,73.70
2019-06-07T18:28:56.249Z,74.20
2019-06-07T18:31:23.581Z,73.50
2019-06-07T18:33:50.989Z,73.60
2019-06-07T18:36:18.368Z,73.80
2019-06-07T18:38:46.836Z,73.90
2019-06-07T18:41:14.443Z,73.50
2019-06-07T18:43:41.792Z,73.60
2019-06-07T18:46:09.092Z,73.90
2019-06-07T18:48:36.525Z,73.90
2019-06-07T18:51:03.961Z,74.30
2019-06-07T18:53:31.255Z,75.10
2019-06-07T18:56:00.403Z,75.00
2019-06-07T18:58:27.834Z,75.40
2019-06-07T19:00:55.542Z,75.00
2019-06-07T19:03:22.980Z,75.70
2019-06-07T19:05:50.461Z,75.50
2019-06-07T19:08:17.876Z,75.50
2019-06-07T19:10:45.315Z,75.50
2019-06-07T19:13:12.742Z,75.90
2019-06-07T19:15:43.218Z,77.10
2019-06-07T19:18:09.275Z,77.00
2019-06-07T19:20:36.594Z,77.60
2019-06-07T19:23:04.010Z,78.10
2019-06-07T19:25:31.430Z,77.60
2019-06-07T19:27:59.141Z,78.20
2019-06-07T19:30:27.911Z,78.70
2019-06-07T19:32:55.328Z,79.50
2019-06-07T19:35:22.760Z,80.20
2019-06-07T19:37:50.136Z,81.20
2019-06-07T19:40:17.817Z,80.80
2019-06-07T19:42:45.285Z,81.10
2019-06-07T19:45:30.683Z,80.90
2019-06-07T19:47:42.304Z,82.40
2019-06-07T19:50:10.354Z,83.20
2019-06-07T19:52:37.711Z,82.80
2019-06-07T19:55:08.848Z,82.20
2019-06-07T19:57:34.901Z,82.90
2019-06-07T20:00:04.109Z,83.90
2019-06-07T20:02:31.626Z,83.70
2019-06-07T20:05:02.977Z,83.20
2019-06-07T20:07:28.186Z,83.10
2019-06-07T20:09:56.519Z,83.90
2019-06-07T20:12:24.083Z,84.30
2019-06-07T20:14:53.864Z,84.80
2019-06-07T20:17:20.687Z,85.20
2019-06-07T20:19:48.196Z,85.40
2019-06-07T20:22:15.962Z,85.10
2019-06-07T20:24:43.292Z,84.80
2019-06-07T20:27:10.691Z,85.50
2019-06-07T20:29:38.126Z,84.50
2019-06-07T20:32:05.461Z,84.60
2019-06-07T20:34:32.927Z,84.40
2019-06-07T20:37:00.276Z,84.10
2019-06-07T20:39:27.729Z,82.40
2019-06-07T20:41:55.072Z,83.50
2019-06-07T20:44:23.610Z,81.80
2019-06-07T20:46:50.921Z,79.60
2019-06-07T20:49:20.087Z,79.40
2019-06-07T20:51:47.491Z,79.60
2019-06-07T20:54:15.051Z,78.20
2019-06-07T20:56:42.424Z,78.60
2019-06-07T20:59:09.786Z,77.60
2019-06-07T21:01:37.253Z,76.80
2019-06-07T21:04:05.108Z,75.70
2019-06-07T21:06:32.498Z,74.30
2019-06-07T21:09:01.747Z,74.00
2019-06-07T21:11:29.192Z,74.40
2019-06-07T21:13:56.811Z,74.40
2019-06-07T21:16:24.372Z,75.50
2019-06-07T21:18:51.808Z,76.90
2019-06-07T21:21:19.194Z,78.70
2019-06-07T21:23:55.349Z,80.30
2019-06-07T21:26:23.065Z,81.50
2019-06-07T21:28:50.499Z,83.70
2019-06-07T21:31:17.938Z,84.80
2019-06-07T21:33:45.259Z,85.80
2019-06-07T21:36:12.715Z,85.60
2019-06-07T21:38:40.036Z,85.60
2019-06-07T21:41:08.225Z,86.00
2019-06-07T21:43:35.731Z,86.00
2019-06-07T21:46:07.032Z,85.40
2019-06-07T21:48:32.497Z,81.90
2019-06-07T21:50:59.921Z,81.60
2019-06-07T21:53:27.273Z,81.60
2019-06-07T21:55:56.301Z,81.40
2019-06-07T21:58:23.636Z,81.50
2019-06-07T22:01:24.097Z,81.80
2019-06-07T22:03:51.393Z,83.50
2019-06-07T22:06:18.831Z,84.40
2019-06-07T22:08:46.257Z,84.60
2019-06-07T22:11:14.184Z,83.10
2019-06-07T22:13:41.770Z,82.60
2019-06-07T22:16:23.587Z,82.70
2019-06-07T22:18:38.345Z,82.30
2019-06-07T22:21:06.397Z,80.30
2019-06-07T22:23:35.114Z,80.10
2019-06-07T22:26:02.542Z,80.70
2019-06-07T22:28:29.959Z,80.10
2019-06-07T22:30:59.120Z,78.90
2019-06-07T22:33:26.509Z,80.00
2019-06-07T22:35:53.925Z,79.40
2019-06-07T22:38:21.349Z,79.10
2019-06-07T22:40:48.648Z,79.80
2019-06-07T22:43:16.071Z,79.80
2019-06-07T22:45:43.399Z,79.50
2019-06-07T22:48:11.839Z,79.30
2019-06-07T22:50:39.171Z,79.70
2019-06-07T22:53:07.378Z,79.90
2019-06-07T22:55:34.792Z,79.30
2019-06-07T22:58:02.099Z,79.60
2019-06-07T23:00:31.219Z,80.10
2019-06-07T23:02:58.569Z,79.40
2019-06-07T23:05:25.964Z,79.10
2019-06-07T23:07:53.294Z,78.90
2019-06-07T23:10:21.722Z,78.90
2019-06-07T23:12:49.120Z,78.50
2019-06-07T23:15:18.055Z,78.60
2019-06-07T23:17:45.900Z,78.20
2019-06-07T23:20:13.771Z,78.30
2019-06-07T23:22:41.125Z,77.90
2019-06-07T23:25:09.944Z,78.40
2019-06-07T23:27:37.378Z,79.00
2019-06-07T23:30:08.644Z,79.60
2019-06-07T23:32:34.371Z,79.50
2019-06-07T23:35:01.760Z,78.60
2019-06-07T23:37:30.902Z,78.60
2019-06-07T23:39:58.182Z,79.20
2019-06-07T23:42:25.524Z,78.90
2019-06-07T23:44:53.965Z,78.90
2019-06-07T23:47:22.389Z,79.00
2019-06-07T23:49:49.896Z,80.00
2019-06-07T23:52:17.923Z,79.70
2019-06-07T23:54:45.397Z,80.00
2019-06-07T23:57:13.968Z,79.40
2019-06-07T23:59:42.542Z,80.00
